createdAt,value
2017-10-30T00:01:11.655Z,93.70
2017-10-30T00:03:39.506Z,93.80
2017-10-30T00:06:06.939Z,93.90
2017-10-30T00:08:34.366Z,94.20
2017-10-30T00:11:01.819Z,94.30
2017-10-30T00:13:29.674Z,94.30
2017-10-30T00:15:57.115Z,94.20
2017-10-30T00:18:24.543Z,94.40
2017-10-30T00:20:52.752Z,94.40
2017-10-30T00:23:20.617Z,94.40
2017-10-30T00:25:48.043Z,94.50
2017-10-30T00:28:16.251Z,94.80
2017-10-30T00:33:49.491Z,94.50
2017-10-30T00:36:17.467Z,94.50
2017-10-30T00:38:44.894Z,94.60
2017-10-30T00:41:12.331Z,94.50
2017-10-30T00:43:39.771Z,94.60
2017-10-30T00:46:07.977Z,94.90
2017-10-30T00:48:35.404Z,94.90
2017-10-30T00:51:03.613Z,94.90
2017-10-30T00:53:31.041Z,94.90
2017-10-30T00:55:59.239Z,94.90
2017-10-30T00:58:26.668Z,94.90
2017-10-30T01:00:54.858Z,95.10
2017-10-30T01:03:22.947Z,95.10
2017-10-30T01:05:50.359Z,95.10
2017-10-30T01:08:18.567Z,95.30
2017-10-30T01:10:46.691Z,95.60
2017-10-30T01:13:14.120Z,95.50
2017-10-30T01:15:41.551Z,95.70
2017-10-30T01:18:08.989Z,95.80
2017-10-30T01:20:39.739Z,95.40
2017-10-30T01:23:07.170Z,95.40
2017-10-30T01:25:35.383Z,95.30
2017-10-30T01:28:02.813Z,95.30
2017-10-30T01:30:30.248Z,95.10
2017-10-30T01:32:57.930Z,95.20
2017-10-30T01:35:26.106Z,95.20
2017-10-30T01:37:54.720Z,95.10
2017-10-30T01:40:22.144Z,95.10
2017-10-30T01:42:55.318Z,95.70
2017-10-30T01:45:23.143Z,95.40
2017-10-30T01:47:50.571Z,95.50
2017-10-30T01:50:17.998Z,95.80
2017-10-30T01:52:45.867Z,96.10
2017-10-30T01:55:13.294Z,96.20
2017-10-30T01:57:40.726Z,96.20
2017-10-30T02:00:08.890Z,96.10
2017-10-30T02:02:36.318Z,96.50
2017-10-30T02:05:04.514Z,96.10
2017-10-30T02:07:31.946Z,96.10
2017-10-30T02:10:00.139Z,95.50
2017-10-30T02:12:28.336Z,95.10
2017-10-30T02:14:55.757Z,95.10
2017-10-30T02:17:24.383Z,95.20
2017-10-30T02:19:51.806Z,95.20
2017-10-30T02:22:20.314Z,95.40
2017-10-30T02:24:47.738Z,95.30
2017-10-30T02:27:15.942Z,95.40
2017-10-30T02:29:49.163Z,95.40
2017-10-30T02:32:16.597Z,95.40
2017-10-30T02:34:46.431Z,95.60
2017-10-30T02:37:14.650Z,95.80
2017-10-30T02:39:42.842Z,95.70
2017-10-30T02:42:10.277Z,95.70
2017-10-30T02:44:38.466Z,96.20
2017-10-30T02:47:05.904Z,96.20
2017-10-30T02:49:33.339Z,96.30
2017-10-30T02:52:01.024Z,97.40
2017-10-30T02:54:29.211Z,97.30
2017-10-30T02:56:57.473Z,97.10
2017-10-30T02:59:24.895Z,97.10
2017-10-30T03:01:52.734Z,97.30
2017-10-30T03:04:20.157Z,96.80
2017-10-30T03:06:48.583Z,97.20
2017-10-30T03:09:16.313Z,97.20
2017-10-30T03:11:44.517Z,97.10
2017-10-30T03:14:11.937Z,97.10
2017-10-30T03:16:40.145Z,97.60
2017-10-30T03:19:07.570Z,97.60
2017-10-30T03:21:35.765Z,96.60
2017-10-30T03:24:03.910Z,96.50
2017-10-30T03:26:31.331Z,96.50
2017-10-30T03:28:59.590Z,96.20
2017-10-30T03:31:27.010Z,96.30
2017-10-30T03:33:55.623Z,96.60
2017-10-30T03:36:23.451Z,96.60
2017-10-30T03:38:50.880Z,96.90
2017-10-30T03:41:18.302Z,96.90
2017-10-30T03:43:45.743Z,96.90
2017-10-30T03:46:13.171Z,97.10
2017-10-30T03:48:40.801Z,96.90
2017-10-30T03:51:08.239Z,96.80
2017-10-30T03:53:35.674Z,96.80
2017-10-30T03:56:03.811Z,97.10
2017-10-30T03:58:31.233Z,96.90
2017-10-30T04:00:58.658Z,96.80
2017-10-30T04:03:27.003Z,96.70
2017-10-30T04:05:54.978Z,96.80
2017-10-30T04:08:22.415Z,97.00
2017-10-30T04:10:49.842Z,97.30
2017-10-30T04:13:17.270Z,97.80
2017-10-30T04:15:46.195Z,97.80
2017-10-30T04:18:13.626Z,97.80
2017-10-30T04:20:41.059Z,98.50
2017-10-30T04:23:08.485Z,98.50
2017-10-30T04:25:35.920Z,99.50
2017-10-30T04:28:03.355Z,99.90
2017-10-30T04:30:30.787Z,99.90
2017-10-30T04:32:58.982Z,99.90
2017-10-30T04:35:27.118Z,99.90
2017-10-30T04:37:55.166Z,99.90
2017-10-30T04:40:23.122Z,99.90
2017-10-30T04:42:50.582Z,99.90
2017-10-30T04:45:19.006Z,99.90
2017-10-30T04:47:46.437Z,99.90
2017-10-30T04:50:13.868Z,99.90
2017-10-30T04:52:41.323Z,99.90
2017-10-30T04:55:08.767Z,99.90
2017-10-30T04:57:36.201Z,99.90
2017-10-30T05:00:04.404Z,99.90
2017-10-30T05:02:31.829Z,99.90
2017-10-30T05:05:02.065Z,99.90
2017-10-30T05:07:44.113Z,99.40
2017-10-30T05:10:29.031Z,99.40
2017-10-30T05:12:57.202Z,98.10
2017-10-30T05:15:25.622Z,98.00
2017-10-30T05:17:53.062Z,98.00
2017-10-30T05:20:20.490Z,97.80
2017-10-30T05:22:48.688Z,97.30
2017-10-30T05:25:16.113Z,97.30
2017-10-30T05:27:45.003Z,97.20
2017-10-30T05:30:12.435Z,97.20
2017-10-30T05:32:39.860Z,97.30
2017-10-30T05:35:07.304Z,97.40
2017-10-30T05:37:34.728Z,97.60
2017-10-30T05:40:05.988Z,97.60
2017-10-30T05:42:34.590Z,97.80
2017-10-30T05:45:02.036Z,97.80
2017-10-30T05:47:30.233Z,97.80
2017-10-30T05:49:57.671Z,97.80
2017-10-30T05:52:25.098Z,97.70
2017-10-30T05:54:52.966Z,97.60
2017-10-30T05:57:20.395Z,97.70
2017-10-30T05:59:48.407Z,98.20
2017-10-30T06:02:17.862Z,98.30
2017-10-30T06:04:45.291Z,98.30
2017-10-30T06:07:13.020Z,98.20
2017-10-30T06:09:44.370Z,97.80
2017-10-30T06:12:11.803Z,97.60
2017-10-30T06:14:39.227Z,97.80
2017-10-30T06:17:06.659Z,97.60
2017-10-30T06:19:34.858Z,97.50
2017-10-30T06:22:02.847Z,97.50
2017-10-30T06:24:30.281Z,96.90
2017-10-30T06:26:57.707Z,96.60
2017-10-30T06:29:25.901Z,96.20
2017-10-30T06:31:53.766Z,96.20
2017-10-30T06:34:21.197Z,96.00
2017-10-30T06:36:50.221Z,95.90
2017-10-30T06:39:18.466Z,95.60
2017-10-30T06:41:45.898Z,95.60
2017-10-30T06:44:13.959Z,95.50
2017-10-30T06:46:41.394Z,95.60
2017-10-30T06:49:08.813Z,95.70
2017-10-30T06:51:37.577Z,95.90
2017-10-30T06:54:05.007Z,95.90
2017-10-30T06:56:32.899Z,96.00
2017-10-30T06:59:00.318Z,96.10
2017-10-30T07:04:26.842Z,96.20
2017-10-30T07:06:55.170Z,96.20
2017-10-30T07:09:22.907Z,95.90
2017-10-30T07:11:50.767Z,95.90
2017-10-30T07:14:18.216Z,96.00
2017-10-30T07:16:45.664Z,96.00
2017-10-30T07:19:13.113Z,95.60
2017-10-30T07:21:40.556Z,95.20
2017-10-30T07:24:08.439Z,95.00
2017-10-30T07:26:36.641Z,94.60
2017-10-30T07:29:04.084Z,94.60
2017-10-30T07:31:32.248Z,94.20
2017-10-30T07:33:59.690Z,94.10
2017-10-30T07:36:27.146Z,93.50
2017-10-30T07:38:54.600Z,93.20
2017-10-30T07:41:22.471Z,93.00
2017-10-30T07:43:49.912Z,92.90
2017-10-30T07:46:18.178Z,92.00
2017-10-30T07:48:45.594Z,92.00
2017-10-30T07:51:13.506Z,91.40
2017-10-30T07:53:41.743Z,90.30
2017-10-30T07:56:09.295Z,90.30
2017-10-30T07:58:36.741Z,89.90
2017-10-30T08:01:04.183Z,88.40
2017-10-30T08:03:32.813Z,88.60
2017-10-30T08:06:00.682Z,88.60
2017-10-30T08:08:28.117Z,87.60
2017-10-30T08:10:58.010Z,87.40
2017-10-30T08:13:25.487Z,87.60
2017-10-30T08:15:52.928Z,87.10
2017-10-30T08:18:20.780Z,85.60
2017-10-30T08:20:48.198Z,84.80
2017-10-30T08:23:15.648Z,85.00
2017-10-30T08:25:43.686Z,85.20
2017-10-30T08:28:11.119Z,85.00
2017-10-30T08:30:38.556Z,85.30
2017-10-30T08:33:07.301Z,83.10
2017-10-30T08:35:37.894Z,83.10
2017-10-30T08:38:05.322Z,83.20
2017-10-30T08:40:32.780Z,82.30
2017-10-30T08:43:00.978Z,82.40
2017-10-30T08:45:28.418Z,82.30
2017-10-30T08:47:56.626Z,81.80
2017-10-30T08:50:25.070Z,81.80
2017-10-30T08:52:53.280Z,81.40
2017-10-30T08:55:20.819Z,81.30
2017-10-30T08:57:48.263Z,80.70
2017-10-30T09:00:16.484Z,80.10
2017-10-30T09:02:43.928Z,80.10
2017-10-30T09:05:11.376Z,80.00
2017-10-30T09:07:38.813Z,80.20
2017-10-30T09:10:07.026Z,78.60
2017-10-30T09:12:34.465Z,78.50
2017-10-30T09:15:01.904Z,78.90
2017-10-30T09:17:30.105Z,77.70
2017-10-30T09:19:57.538Z,77.70
2017-10-30T09:22:25.741Z,78.50
2017-10-30T09:24:53.183Z,78.50
2017-10-30T09:27:21.071Z,76.80
2017-10-30T09:29:48.544Z,75.10
2017-10-30T09:32:16.063Z,72.90
2017-10-30T09:34:44.094Z,73.70
2017-10-30T09:37:11.542Z,73.40
2017-10-30T09:39:38.987Z,72.50
2017-10-30T09:42:06.691Z,71.20
2017-10-30T09:44:34.114Z,71.90
2017-10-30T09:47:02.185Z,71.40
2017-10-30T09:49:29.639Z,71.40
2017-10-30T09:51:57.116Z,71.80
2017-10-30T09:54:24.559Z,72.30
2017-10-30T09:56:51.997Z,71.60
2017-10-30T09:59:19.478Z,71.70
2017-10-30T10:01:46.929Z,72.70
2017-10-30T10:04:16.960Z,72.10
2017-10-30T10:06:44.524Z,71.50
2017-10-30T10:09:15.414Z,71.20
2017-10-30T10:11:42.859Z,71.00
2017-10-30T10:14:10.291Z,70.80
2017-10-30T10:16:38.506Z,71.20
2017-10-30T10:19:06.573Z,71.20
2017-10-30T10:21:34.022Z,70.60
2017-10-30T10:24:01.473Z,71.30
2017-10-30T10:26:28.929Z,71.30
2017-10-30T10:28:57.946Z,67.90
2017-10-30T10:31:25.378Z,67.90
2017-10-30T10:33:52.837Z,66.90
2017-10-30T10:36:20.279Z,67.60
2017-10-30T10:38:47.741Z,66.00
2017-10-30T10:41:15.968Z,67.10
2017-10-30T10:43:43.408Z,67.10
2017-10-30T10:46:11.287Z,65.30
2017-10-30T10:48:38.741Z,64.80
2017-10-30T10:51:06.168Z,61.80
2017-10-30T10:53:33.623Z,59.90
2017-10-30T10:56:01.058Z,57.10
2017-10-30T10:58:29.275Z,52.80
2017-10-30T11:00:56.722Z,52.80
2017-10-30T11:03:24.174Z,52.20
2017-10-30T11:05:51.605Z,51.60
2017-10-30T11:08:19.898Z,55.40
2017-10-30T11:10:47.342Z,55.40
2017-10-30T11:13:15.552Z,58.20
2017-10-30T11:15:43.017Z,57.50
2017-10-30T11:18:10.458Z,57.60
2017-10-30T11:20:37.886Z,55.40
2017-10-30T11:23:06.105Z,49.70
2017-10-30T11:25:33.547Z,49.70
2017-10-30T11:28:00.992Z,49.30
2017-10-30T11:30:28.432Z,49.80
2017-10-30T11:32:56.678Z,48.80
2017-10-30T11:35:24.119Z,48.70
2017-10-30T11:37:51.551Z,48.50
2017-10-30T11:40:18.994Z,46.60
2017-10-30T11:42:46.436Z,47.80
2017-10-30T11:45:14.660Z,49.50
2017-10-30T11:47:42.104Z,48.80
2017-10-30T11:50:09.570Z,49.80
2017-10-30T11:52:36.991Z,52.20
2017-10-30T11:55:04.435Z,54.30
2017-10-30T11:57:32.648Z,55.30
2017-10-30T12:00:00.087Z,55.30
2017-10-30T12:02:27.580Z,55.20
2017-10-30T12:04:55.036Z,50.70
2017-10-30T12:07:22.498Z,48.50
2017-10-30T12:09:50.060Z,49.10
2017-10-30T12:12:17.600Z,51.60
2017-10-30T12:14:45.048Z,53.60
2017-10-30T12:17:12.504Z,55.40
2017-10-30T12:19:39.939Z,56.20
2017-10-30T12:22:08.249Z,57.50
2017-10-30T12:24:35.678Z,57.30
2017-10-30T12:27:03.118Z,58.00
2017-10-30T12:29:31.337Z,58.80
2017-10-30T12:31:59.335Z,58.80
2017-10-30T12:34:26.783Z,58.90
2017-10-30T12:36:54.226Z,58.50
2017-10-30T12:39:22.592Z,58.50
2017-10-30T12:41:50.067Z,58.30
2017-10-30T12:44:17.519Z,56.20
2017-10-30T12:46:44.951Z,54.50
2017-10-30T12:49:12.388Z,54.20
2017-10-30T12:51:39.877Z,53.90
2017-10-30T12:54:07.336Z,55.10
2017-10-30T12:56:35.367Z,55.30
2017-10-30T12:59:04.163Z,56.90
2017-10-30T13:01:32.375Z,58.10
2017-10-30T13:04:00.317Z,58.00
2017-10-30T13:06:28.203Z,57.50
2017-10-30T13:08:55.686Z,57.40
2017-10-30T13:11:23.587Z,57.20
2017-10-30T13:13:51.855Z,57.80
2017-10-30T13:16:19.292Z,57.80
2017-10-30T13:18:46.736Z,58.50
2017-10-30T13:21:14.172Z,58.50
2017-10-30T13:23:41.612Z,57.90
2017-10-30T13:26:10.185Z,58.00
2017-10-30T13:28:38.438Z,56.20
2017-10-30T13:31:05.889Z,56.20
2017-10-30T13:33:33.328Z,57.30
2017-10-30T13:36:01.324Z,57.70
2017-10-30T13:38:29.285Z,57.20
2017-10-30T13:40:56.728Z,57.90
2017-10-30T13:43:24.758Z,58.30
2017-10-30T13:45:53.648Z,58.70
2017-10-30T13:48:21.089Z,59.70
2017-10-30T13:50:49.303Z,61.70
2017-10-30T13:53:16.723Z,61.70
2017-10-30T13:55:45.209Z,60.90
2017-10-30T13:58:13.454Z,60.60
2017-10-30T14:00:40.899Z,60.60
2017-10-30T14:03:08.331Z,60.30
2017-10-30T14:05:35.774Z,60.80
2017-10-30T14:08:03.662Z,60.80
2017-10-30T14:10:31.102Z,62.00
2017-10-30T14:12:58.535Z,62.30
2017-10-30T14:15:26.066Z,62.30
2017-10-30T14:17:53.493Z,63.00
2017-10-30T14:20:20.955Z,62.90
2017-10-30T14:22:48.393Z,63.40
2017-10-30T14:25:15.856Z,63.70
2017-10-30T14:27:43.288Z,63.70
2017-10-30T14:30:13.914Z,63.40
2017-10-30T14:32:41.338Z,63.60
2017-10-30T14:35:08.800Z,63.80
2017-10-30T14:37:36.239Z,64.20
2017-10-30T14:40:04.207Z,63.90
2017-10-30T14:42:31.630Z,63.20
2017-10-30T14:45:02.140Z,63.60
2017-10-30T14:47:29.572Z,63.70
2017-10-30T14:49:57.038Z,63.60
2017-10-30T14:52:25.651Z,64.20
2017-10-30T14:54:53.366Z,64.20
2017-10-30T14:57:20.780Z,65.00
2017-10-30T14:59:48.240Z,65.30
2017-10-30T15:02:15.683Z,65.80
2017-10-30T15:04:43.260Z,65.70
2017-10-30T15:07:10.718Z,67.10
2017-10-30T15:09:38.173Z,66.40
2017-10-30T15:12:05.595Z,66.40
2017-10-30T15:14:33.812Z,66.40
2017-10-30T15:17:01.260Z,66.30
2017-10-30T15:19:39.926Z,66.30
2017-10-30T15:22:07.364Z,66.60
2017-10-30T15:24:35.230Z,67.10
2017-10-30T15:27:03.375Z,67.80
2017-10-30T15:29:30.816Z,67.40
2017-10-30T15:31:58.235Z,67.90
2017-10-30T15:34:25.679Z,68.20
2017-10-30T15:36:53.113Z,68.10
2017-10-30T15:39:21.089Z,68.50
2017-10-30T15:41:48.526Z,68.60
2017-10-30T15:44:15.964Z,69.10
2017-10-30T15:46:43.415Z,69.10
2017-10-30T15:49:10.855Z,68.50
2017-10-30T15:51:39.054Z,69.00
2017-10-30T15:54:06.923Z,69.00
2017-10-30T15:56:34.361Z,69.60
2017-10-30T15:59:02.569Z,70.60
2017-10-30T16:01:30.027Z,70.60
2017-10-30T16:03:57.534Z,71.70
2017-10-30T16:06:24.989Z,72.10
2017-10-30T16:08:52.423Z,72.50
2017-10-30T16:11:19.858Z,73.80
2017-10-30T16:13:47.283Z,73.30
2017-10-30T16:16:15.146Z,74.20
2017-10-30T16:18:43.346Z,76.30
2017-10-30T16:21:10.879Z,76.20
2017-10-30T16:23:39.506Z,77.10
2017-10-30T16:26:06.954Z,77.00
2017-10-30T16:28:34.974Z,77.70
2017-10-30T16:33:36.386Z,78.40
2017-10-30T16:36:03.834Z,78.40
2017-10-30T16:38:31.254Z,78.30
2017-10-30T16:40:59.459Z,78.90
2017-10-30T16:43:26.914Z,78.90
2017-10-30T16:45:55.356Z,78.70
2017-10-30T16:48:22.802Z,78.70
2017-10-30T16:50:50.268Z,79.50
2017-10-30T16:53:17.695Z,78.70
2017-10-30T16:55:45.552Z,78.30
2017-10-30T16:58:13.191Z,78.50
2017-10-30T17:00:40.646Z,78.50
2017-10-30T17:03:08.074Z,78.50
2017-10-30T17:05:35.531Z,78.50
2017-10-30T17:08:03.384Z,78.50
2017-10-30T17:10:30.826Z,78.40
2017-10-30T17:12:58.306Z,78.90
2017-10-30T17:15:26.366Z,79.10
2017-10-30T17:17:54.225Z,78.50
2017-10-30T17:20:21.687Z,78.70
2017-10-30T17:22:49.118Z,79.40
2017-10-30T17:25:20.838Z,80.20
2017-10-30T17:28:02.142Z,81.40
2017-10-30T17:30:30.488Z,81.20
2017-10-30T17:32:57.918Z,81.70
2017-10-30T17:35:25.362Z,82.20
2017-10-30T17:37:53.813Z,82.80
2017-10-30T17:40:21.258Z,82.80
2017-10-30T17:42:48.698Z,83.40
2017-10-30T17:45:17.400Z,83.40
2017-10-30T17:47:45.713Z,83.40
2017-10-30T17:50:13.156Z,83.40
2017-10-30T17:52:40.600Z,82.90
2017-10-30T17:55:08.035Z,83.20
2017-10-30T17:57:36.256Z,83.40
2017-10-30T18:00:03.714Z,83.30
2017-10-30T18:02:31.165Z,83.00
2017-10-30T18:04:59.427Z,83.30
2017-10-30T18:07:28.582Z,83.30
2017-10-30T18:09:56.020Z,83.00
2017-10-30T18:12:24.301Z,83.10
2017-10-30T18:14:53.271Z,83.20
2017-10-30T18:17:20.715Z,83.20
2017-10-30T18:19:49.775Z,82.90
2017-10-30T18:22:24.066Z,82.90
2017-10-30T18:24:52.347Z,82.90
2017-10-30T18:27:20.138Z,83.30
2017-10-30T18:29:48.367Z,83.00
2017-10-30T18:32:15.812Z,83.00
2017-10-30T18:34:43.259Z,83.70
2017-10-30T18:37:10.718Z,84.00
2017-10-30T18:39:38.175Z,84.10
2017-10-30T18:42:05.934Z,84.40
2017-10-30T18:44:33.395Z,84.40
2017-10-30T18:47:00.859Z,85.00
2017-10-30T18:49:28.281Z,84.90
2017-10-30T18:51:56.965Z,86.40
2017-10-30T18:54:25.166Z,86.20
2017-10-30T18:56:52.612Z,86.10
2017-10-30T18:59:20.049Z,85.40
2017-10-30T19:01:48.292Z,84.80
2017-10-30T19:04:17.740Z,84.80
2017-10-30T19:06:45.958Z,85.10
2017-10-30T19:09:13.436Z,85.10
2017-10-30T19:11:41.371Z,85.60
2017-10-30T19:14:08.846Z,86.00
2017-10-30T19:16:37.142Z,86.70
2017-10-30T19:19:04.587Z,88.60
2017-10-30T19:21:32.597Z,90.10
2017-10-30T19:24:00.842Z,90.70
2017-10-30T19:26:28.294Z,90.70
2017-10-30T19:28:55.773Z,91.30
2017-10-30T19:31:24.028Z,92.60
2017-10-30T19:33:51.486Z,92.30
2017-10-30T19:36:18.949Z,92.90
2017-10-30T19:38:46.402Z,93.10
2017-10-30T19:41:13.906Z,93.50
2017-10-30T19:43:41.340Z,93.70
2017-10-30T19:46:09.559Z,94.50
2017-10-30T19:48:36.999Z,94.40
2017-10-30T19:51:04.736Z,95.00
2017-10-30T19:53:32.191Z,95.10
2017-10-30T19:55:59.646Z,95.60
2017-10-30T19:58:27.077Z,96.40
2017-10-30T20:00:54.860Z,96.60
2017-10-30T20:03:24.214Z,98.00
2017-10-30T20:05:57.321Z,97.90
2017-10-30T20:08:30.657Z,98.10
2017-10-30T20:11:03.704Z,98.40
2017-10-30T20:13:31.141Z,98.80
2017-10-30T20:15:58.586Z,98.80
2017-10-30T20:18:26.034Z,98.70
2017-10-30T20:20:53.508Z,99.00
2017-10-30T20:23:20.938Z,98.80
2017-10-30T20:25:49.158Z,98.90
2017-10-30T20:28:17.034Z,98.90
2017-10-30T20:30:44.538Z,99.00
2017-10-30T20:33:12.760Z,99.10
2017-10-30T20:35:50.405Z,99.10
2017-10-30T20:38:18.615Z,99.30
2017-10-30T20:40:46.059Z,99.30
2017-10-30T20:43:13.503Z,99.80
2017-10-30T20:45:42.404Z,99.90
2017-10-30T20:48:09.855Z,99.90
2017-10-30T20:50:38.330Z,99.90
2017-10-30T20:53:06.522Z,99.90
2017-10-30T20:55:33.959Z,99.90
2017-10-30T20:58:02.174Z,99.90
2017-10-30T21:00:29.624Z,99.90
2017-10-30T21:02:57.070Z,99.90
2017-10-30T21:05:24.512Z,99.90
2017-10-30T21:07:52.741Z,99.90
2017-10-30T21:10:20.187Z,99.90
2017-10-30T21:12:47.749Z,99.90
2017-10-30T21:15:15.185Z,99.90
2017-10-30T21:17:42.622Z,99.90
2017-10-30T21:20:22.243Z,99.90
2017-10-30T21:23:03.887Z,99.90
2017-10-30T21:25:31.311Z,99.90
2017-10-30T21:27:58.807Z,99.90
2017-10-30T21:30:26.243Z,99.90
2017-10-30T21:32:54.102Z,99.90
2017-10-30T21:35:21.527Z,99.90
2017-10-30T21:37:50.171Z,99.90
2017-10-30T21:40:17.593Z,99.90
2017-10-30T21:42:45.046Z,99.90
2017-10-30T21:45:13.329Z,99.90
2017-10-30T21:47:40.769Z,99.90
2017-10-30T21:50:08.981Z,99.90
2017-10-30T21:52:36.668Z,99.90
2017-10-30T21:55:04.155Z,99.90
2017-10-30T21:57:31.591Z,99.90
2017-10-30T21:59:59.572Z,99.90
2017-10-30T22:02:27.073Z,99.90
2017-10-30T22:04:54.495Z,99.90
2017-10-30T22:07:22.706Z,99.90
2017-10-30T22:09:50.134Z,99.90
2017-10-30T22:12:18.341Z,99.90
2017-10-30T22:14:46.582Z,99.90
2017-10-30T22:17:14.786Z,99.90
2017-10-30T22:19:42.232Z,99.90
2017-10-30T22:22:09.672Z,99.90
2017-10-30T22:24:38.595Z,99.90
2017-10-30T22:27:06.050Z,99.90
2017-10-30T22:29:33.958Z,99.90
2017-10-30T22:32:01.417Z,99.90
2017-10-30T22:34:28.856Z,99.90
2017-10-30T22:36:56.849Z,99.90
2017-10-30T22:39:24.723Z,99.90
2017-10-30T22:42:06.842Z,99.90
2017-10-30T22:44:36.070Z,99.90
2017-10-30T22:47:03.507Z,99.90
2017-10-30T22:49:30.933Z,99.90
2017-10-30T22:52:00.790Z,99.90
2017-10-30T22:54:28.664Z,99.90
2017-10-30T22:56:56.219Z,99.90
2017-10-30T22:59:23.918Z,99.90
2017-10-30T23:01:51.369Z,99.90
2017-10-30T23:04:18.811Z,99.90
2017-10-30T23:06:46.267Z,99.90
2017-10-30T23:09:13.716Z,99.90
2017-10-30T23:11:41.172Z,99.90
2017-10-30T23:14:08.621Z,99.90
2017-10-30T23:16:36.631Z,99.90
2017-10-30T23:19:04.062Z,99.90
2017-10-30T23:21:32.042Z,99.90
2017-10-30T23:23:59.496Z,99.90
2017-10-30T23:26:27.507Z,99.90
2017-10-30T23:28:54.942Z,99.90
2017-10-30T23:31:23.898Z,99.90
2017-10-30T23:33:51.347Z,99.90
2017-10-30T23:36:18.790Z,99.90
2017-10-30T23:38:46.488Z,99.90
2017-10-30T23:41:16.389Z,99.90
2017-10-30T23:43:43.943Z,99.90
2017-10-30T23:46:11.383Z,99.90
2017-10-30T23:48:39.603Z,99.90
2017-10-30T23:51:07.825Z,99.90
2017-10-30T23:53:36.030Z,99.90
2017-10-30T23:56:04.051Z,99.90
2017-10-30T23:58:31.511Z,99.90
